sensor_id;sensor_type;location;lat;lon;timestamp;P1;durP1;ratioP1;P2;durP2;ratioP2
12290;SDS011;6208;48.956;9.076;2024-02-21T00:00:07;5.70;;;3.77;;
12290;SDS011;6208;48.956;9.076;2024-02-21T00:02:54;11.55;;;4.43;;
12290;SDS011;6208;48.956;9.076;2024-02-21T00:05:39;11.50;;;4.78;;
12290;SDS011;6208;48.956;9.076;2024-02-21T00:08:24;9.27;;;4.22;;
12290;SDS011;6208;48.956;9.076;2024-02-21T00:11:08;9.25;;;4.40;;
12290;SDS011;6208;48.956;9.076;2024-02-21T00:13:53;11.27;;;4.00;;
12290;SDS011;6208;48.956;9.076;2024-02-21T00:16:37;11.32;;;4.35;;
12290;SDS011;6208;48.956;9.076;2024-02-21T00:19:21;7.77;;;4.30;;
12290;SDS011;6208;48.956;9.076;2024-02-21T00:22:05;8.77;;;4.10;;
12290;SDS011;6208;48.956;9.076;2024-02-21T00:24:49;7.75;;;4.28;;
12290;SDS011;6208;48.956;9.076;2024-02-21T00:27:33;11.77;;;4.63;;
12290;SDS011;6208;48.956;9.076;2024-02-21T00:30:17;7.28;;;4.15;;
12290;SDS011;6208;48.956;9.076;2024-02-21T00:33:01;9.57;;;4.17;;
12290;SDS011;6208;48.956;9.076;2024-02-21T00:35:45;6.10;;;4.13;;
12290;SDS011;6208;48.956;9.076;2024-02-21T00:38:29;8.32;;;4.45;;
12290;SDS011;6208;48.956;9.076;2024-02-21T00:41:13;7.88;;;4.07;;
12290;SDS011;6208;48.956;9.076;2024-02-21T00:43:57;9.13;;;3.80;;
12290;SDS011;6208;48.956;9.076;2024-02-21T00:46:41;6.90;;;4.20;;
12290;SDS011;6208;48.956;9.076;2024-02-21T00:49:25;5.22;;;3.47;;
12290;SDS011;6208;48.956;9.076;2024-02-21T00:52:09;10.93;;;4.43;;
12290;SDS011;6208;48.956;9.076;2024-02-21T00:54:53;6.93;;;4.53;;
12290;SDS011;6208;48.956;9.076;2024-02-21T00:57:37;8.77;;;4.33;;
12290;SDS011;6208;48.956;9.076;2024-02-21T01:00:22;6.37;;;3.83;;
12290;SDS011;6208;48.956;9.076;2024-02-21T01:03:06;8.77;;;3.40;;
12290;SDS011;6208;48.956;9.076;2024-02-21T01:05:51;8.33;;;3.63;;
12290;SDS011;6208;48.956;9.076;2024-02-21T01:08:35;7.45;;;3.58;;
12290;SDS011;6208;48.956;9.076;2024-02-21T01:11:19;5.53;;;3.13;;
12290;SDS011;6208;48.956;9.076;2024-02-21T01:14:04;6.33;;;3.37;;
12290;SDS011;6208;48.956;9.076;2024-02-21T01:16:48;8.73;;;3.47;;
12290;SDS011;6208;48.956;9.076;2024-02-21T01:19:32;7.87;;;3.30;;
12290;SDS011;6208;48.956;9.076;2024-02-21T01:22:16;7.03;;;3.85;;
12290;SDS011;6208;48.956;9.076;2024-02-21T01:25:01;7.50;;;3.65;;
12290;SDS011;6208;48.956;9.076;2024-02-21T01:27:45;6.15;;;3.17;;
12290;SDS011;6208;48.956;9.076;2024-02-21T01:30:29;6.73;;;3.97;;
12290;SDS011;6208;48.956;9.076;2024-02-21T01:33:13;7.80;;;3.50;;
12290;SDS011;6208;48.956;9.076;2024-02-21T01:35:57;6.53;;;3.40;;
12290;SDS011;6208;48.956;9.076;2024-02-21T01:38:41;9.13;;;3.47;;
12290;SDS011;6208;48.956;9.076;2024-02-21T01:41:25;5.13;;;3.13;;
12290;SDS011;6208;48.956;9.076;2024-02-21T01:44:09;10.52;;;3.60;;
12290;SDS011;6208;48.956;9.076;2024-02-21T01:46:53;9.30;;;3.35;;
12290;SDS011;6208;48.956;9.076;2024-02-21T01:49:38;8.07;;;3.60;;
12290;SDS011;6208;48.956;9.076;2024-02-21T01:52:23;4.32;;;3.10;;
12290;SDS011;6208;48.956;9.076;2024-02-21T01:55:08;6.85;;;3.05;;
12290;SDS011;6208;48.956;9.076;2024-02-21T01:57:53;9.45;;;3.72;;
12290;SDS011;6208;48.956;9.076;2024-02-21T02:00:38;3.70;;;2.70;;
12290;SDS011;6208;48.956;9.076;2024-02-21T02:03:25;6.00;;;3.40;;
12290;SDS011;6208;48.956;9.076;2024-02-21T02:06:10;8.75;;;3.85;;
12290;SDS011;6208;48.956;9.076;2024-02-21T02:08:55;5.32;;;3.55;;
12290;SDS011;6208;48.956;9.076;2024-02-21T02:11:39;6.82;;;2.95;;
12290;SDS011;6208;48.956;9.076;2024-02-21T02:14:23;10.05;;;3.20;;
12290;SDS011;6208;48.956;9.076;2024-02-21T02:17:08;7.15;;;3.30;;
12290;SDS011;6208;48.956;9.076;2024-02-21T02:19:53;7.05;;;3.08;;
12290;SDS011;6208;48.956;9.076;2024-02-21T02:22:37;5.50;;;3.55;;
12290;SDS011;6208;48.956;9.076;2024-02-21T02:25:26;8.47;;;3.17;;
12290;SDS011;6208;48.956;9.076;2024-02-21T02:28:10;8.87;;;3.50;;
12290;SDS011;6208;48.956;9.076;2024-02-21T02:30:54;8.63;;;3.57;;
12290;SDS011;6208;48.956;9.076;2024-02-21T02:33:38;12.45;;;3.75;;
12290;SDS011;6208;48.956;9.076;2024-02-21T02:36:22;7.00;;;3.20;;
12290;SDS011;6208;48.956;9.076;2024-02-21T02:39:06;7.60;;;3.80;;
12290;SDS011;6208;48.956;9.076;2024-02-21T02:41:50;5.63;;;3.00;;
12290;SDS011;6208;48.956;9.076;2024-02-21T02:44:34;10.90;;;3.93;;
12290;SDS011;6208;48.956;9.076;2024-02-21T02:47:19;5.93;;;3.58;;
12290;SDS011;6208;48.956;9.076;2024-02-21T02:50:03;6.80;;;3.87;;
12290;SDS011;6208;48.956;9.076;2024-02-21T02:52:47;7.38;;;4.00;;
12290;SDS011;6208;48.956;9.076;2024-02-21T02:55:32;8.30;;;4.20;;
12290;SDS011;6208;48.956;9.076;2024-02-21T02:58:16;5.55;;;3.72;;
12290;SDS011;6208;48.956;9.076;2024-02-21T03:01:00;6.13;;;3.25;;
12290;SDS011;6208;48.956;9.076;2024-02-21T03:03:45;6.70;;;3.47;;
12290;SDS011;6208;48.956;9.076;2024-02-21T03:06:30;9.07;;;4.05;;
12290;SDS011;6208;48.956;9.076;2024-02-21T03:09:14;5.95;;;3.72;;
12290;SDS011;6208;48.956;9.076;2024-02-21T03:11:59;6.45;;;3.50;;
12290;SDS011;6208;48.956;9.076;2024-02-21T03:14:46;8.20;;;4.03;;
12290;SDS011;6208;48.956;9.076;2024-02-21T03:17:30;7.90;;;3.93;;
12290;SDS011;6208;48.956;9.076;2024-02-21T03:20:16;6.47;;;3.97;;
12290;SDS011;6208;48.956;9.076;2024-02-21T03:23:00;11.27;;;4.40;;
12290;SDS011;6208;48.956;9.076;2024-02-21T03:25:44;4.23;;;3.53;;
12290;SDS011;6208;48.956;9.076;2024-02-21T03:28:28;5.63;;;3.97;;
12290;SDS011;6208;48.956;9.076;2024-02-21T03:31:12;8.37;;;4.20;;
12290;SDS011;6208;48.956;9.076;2024-02-21T03:33:57;9.60;;;3.67;;
12290;SDS011;6208;48.956;9.076;2024-02-21T03:36:41;8.57;;;3.93;;
12290;SDS011;6208;48.956;9.076;2024-02-21T03:39:25;5.60;;;3.17;;
12290;SDS011;6208;48.956;9.076;2024-02-21T03:42:09;6.45;;;3.63;;
12290;SDS011;6208;48.956;9.076;2024-02-21T03:44:53;3.20;;;2.97;;
12290;SDS011;6208;48.956;9.076;2024-02-21T03:47:38;6.35;;;3.13;;
12290;SDS011;6208;48.956;9.076;2024-02-21T03:50:22;10.50;;;4.43;;
12290;SDS011;6208;48.956;9.076;2024-02-21T03:53:06;9.60;;;3.95;;
12290;SDS011;6208;48.956;9.076;2024-02-21T03:55:50;9.20;;;3.88;;
12290;SDS011;6208;48.956;9.076;2024-02-21T03:58:34;7.40;;;3.80;;
12290;SDS011;6208;48.956;9.076;2024-02-21T04:01:18;6.37;;;3.80;;
12290;SDS011;6208;48.956;9.076;2024-02-21T04:04:03;8.10;;;3.90;;
12290;SDS011;6208;48.956;9.076;2024-02-21T04:06:51;7.95;;;3.38;;
12290;SDS011;6208;48.956;9.076;2024-02-21T04:09:35;10.13;;;3.60;;
12290;SDS011;6208;48.956;9.076;2024-02-21T04:12:19;6.30;;;3.17;;
12290;SDS011;6208;48.956;9.076;2024-02-21T04:15:03;4.72;;;3.00;;
12290;SDS011;6208;48.956;9.076;2024-02-21T04:17:48;4.63;;;2.87;;
12290;SDS011;6208;48.956;9.076;2024-02-21T04:20:33;5.93;;;3.03;;
12290;SDS011;6208;48.956;9.076;2024-02-21T04:23:18;5.82;;;3.50;;
12290;SDS011;6208;48.956;9.076;2024-02-21T04:26:02;6.07;;;3.50;;
12290;SDS011;6208;48.956;9.076;2024-02-21T04:28:46;10.93;;;3.20;;
12290;SDS011;6208;48.956;9.076;2024-02-21T04:31:32;4.20;;;2.90;;
12290;SDS011;6208;48.956;9.076;2024-02-21T04:34:16;4.63;;;2.90;;
12290;SDS011;6208;48.956;9.076;2024-02-21T04:37:00;5.30;;;3.10;;
12290;SDS011;6208;48.956;9.076;2024-02-21T04:39:44;13.53;;;5.83;;
12290;SDS011;6208;48.956;9.076;2024-02-21T04:42:28;18.40;;;7.83;;
12290;SDS011;6208;48.956;9.076;2024-02-21T04:45:12;16.43;;;6.80;;
12290;SDS011;6208;48.956;9.076;2024-02-21T04:47:56;8.53;;;5.23;;
12290;SDS011;6208;48.956;9.076;2024-02-21T04:50:40;9.90;;;5.07;;
12290;SDS011;6208;48.956;9.076;2024-02-21T04:53:24;9.32;;;4.70;;
12290;SDS011;6208;48.956;9.076;2024-02-21T04:56:09;7.53;;;3.90;;
12290;SDS011;6208;48.956;9.076;2024-02-21T04:58:53;9.10;;;4.47;;
12290;SDS011;6208;48.956;9.076;2024-02-21T05:01:37;8.18;;;3.97;;
12290;SDS011;6208;48.956;9.076;2024-02-21T05:04:21;4.68;;;3.05;;
12290;SDS011;6208;48.956;9.076;2024-02-21T05:07:05;4.70;;;3.67;;
12290;SDS011;6208;48.956;9.076;2024-02-21T05:09:50;9.17;;;3.47;;
12290;SDS011;6208;48.956;9.076;2024-02-21T05:12:34;4.50;;;3.07;;
12290;SDS011;6208;48.956;9.076;2024-02-21T05:15:19;8.37;;;3.53;;
12290;SDS011;6208;48.956;9.076;2024-02-21T05:18:03;5.63;;;3.60;;
12290;SDS011;6208;48.956;9.076;2024-02-21T05:20:47;6.60;;;3.73;;
12290;SDS011;6208;48.956;9.076;2024-02-21T05:23:31;7.83;;;3.17;;
12290;SDS011;6208;48.956;9.076;2024-02-21T05:26:22;9.87;;;3.40;;
12290;SDS011;6208;48.956;9.076;2024-02-21T05:29:07;6.60;;;3.60;;
12290;SDS011;6208;48.956;9.076;2024-02-21T05:34:36;8.10;;;3.37;;
12290;SDS011;6208;48.956;9.076;2024-02-21T05:37:20;7.37;;;4.13;;
12290;SDS011;6208;48.956;9.076;2024-02-21T05:40:04;10.57;;;6.00;;
12290;SDS011;6208;48.956;9.076;2024-02-21T05:42:49;7.40;;;4.20;;
12290;SDS011;6208;48.956;9.076;2024-02-21T05:45:35;6.57;;;3.63;;
12290;SDS011;6208;48.956;9.076;2024-02-21T05:48:19;5.87;;;3.70;;
12290;SDS011;6208;48.956;9.076;2024-02-21T05:51:04;5.87;;;3.40;;
12290;SDS011;6208;48.956;9.076;2024-02-21T05:53:48;8.37;;;3.43;;
12290;SDS011;6208;48.956;9.076;2024-02-21T05:56:32;5.97;;;3.50;;
12290;SDS011;6208;48.956;9.076;2024-02-21T05:59:16;6.07;;;4.10;;
12290;SDS011;6208;48.956;9.076;2024-02-21T06:02:00;5.27;;;3.23;;
12290;SDS011;6208;48.956;9.076;2024-02-21T06:04:47;9.40;;;3.67;;
12290;SDS011;6208;48.956;9.076;2024-02-21T06:07:31;7.57;;;3.60;;
12290;SDS011;6208;48.956;9.076;2024-02-21T06:10:15;5.20;;;3.90;;
12290;SDS011;6208;48.956;9.076;2024-02-21T06:12:59;6.63;;;3.57;;
12290;SDS011;6208;48.956;9.076;2024-02-21T06:15:44;10.13;;;4.60;;
12290;SDS011;6208;48.956;9.076;2024-02-21T06:18:28;5.17;;;3.90;;
12290;SDS011;6208;48.956;9.076;2024-02-21T06:21:12;8.77;;;4.57;;
12290;SDS011;6208;48.956;9.076;2024-02-21T06:23:57;7.27;;;4.10;;
12290;SDS011;6208;48.956;9.076;2024-02-21T06:26:41;5.83;;;4.00;;
12290;SDS011;6208;48.956;9.076;2024-02-21T06:29:25;5.53;;;4.13;;
12290;SDS011;6208;48.956;9.076;2024-02-21T06:32:09;8.03;;;4.13;;
12290;SDS011;6208;48.956;9.076;2024-02-21T06:34:53;6.97;;;4.30;;
12290;SDS011;6208;48.956;9.076;2024-02-21T06:37:37;7.67;;;4.57;;
12290;SDS011;6208;48.956;9.076;2024-02-21T06:40:22;7.80;;;3.90;;
12290;SDS011;6208;48.956;9.076;2024-02-21T06:43:06;5.43;;;3.67;;
12290;SDS011;6208;48.956;9.076;2024-02-21T06:45:50;5.73;;;4.10;;
12290;SDS011;6208;48.956;9.076;2024-02-21T06:48:34;5.67;;;3.90;;
12290;SDS011;6208;48.956;9.076;2024-02-21T06:51:19;7.90;;;3.80;;
12290;SDS011;6208;48.956;9.076;2024-02-21T06:54:03;7.23;;;3.60;;
12290;SDS011;6208;48.956;9.076;2024-02-21T06:56:47;13.20;;;4.90;;
12290;SDS011;6208;48.956;9.076;2024-02-21T06:59:31;6.63;;;3.80;;
12290;SDS011;6208;48.956;9.076;2024-02-21T07:02:15;10.27;;;4.07;;
12290;SDS011;6208;48.956;9.076;2024-02-21T07:04:59;8.23;;;4.30;;
12290;SDS011;6208;48.956;9.076;2024-02-21T07:07:43;9.37;;;3.90;;
12290;SDS011;6208;48.956;9.076;2024-02-21T07:10:27;5.13;;;4.13;;
12290;SDS011;6208;48.956;9.076;2024-02-21T07:13:12;8.43;;;4.03;;
12290;SDS011;6208;48.956;9.076;2024-02-21T07:15:59;14.17;;;5.57;;
12290;SDS011;6208;48.956;9.076;2024-02-21T07:18:43;5.83;;;4.30;;
12290;SDS011;6208;48.956;9.076;2024-02-21T07:21:27;6.80;;;3.47;;
12290;SDS011;6208;48.956;9.076;2024-02-21T07:24:11;4.67;;;2.63;;
12290;SDS011;6208;48.956;9.076;2024-02-21T07:26:55;5.10;;;2.93;;
12290;SDS011;6208;48.956;9.076;2024-02-21T07:29:40;9.20;;;3.07;;
12290;SDS011;6208;48.956;9.076;2024-02-21T07:32:24;6.47;;;3.03;;
12290;SDS011;6208;48.956;9.076;2024-02-21T07:35:08;5.30;;;3.00;;
12290;SDS011;6208;48.956;9.076;2024-02-21T07:37:55;7.43;;;3.27;;
12290;SDS011;6208;48.956;9.076;2024-02-21T07:40:39;9.37;;;2.83;;
12290;SDS011;6208;48.956;9.076;2024-02-21T07:43:24;5.17;;;2.73;;
12290;SDS011;6208;48.956;9.076;2024-02-21T07:46:09;8.40;;;3.10;;
12290;SDS011;6208;48.956;9.076;2024-02-21T07:48:53;5.70;;;2.93;;
12290;SDS011;6208;48.956;9.076;2024-02-21T07:51:37;7.27;;;2.63;;
12290;SDS011;6208;48.956;9.076;2024-02-21T07:54:21;5.03;;;2.80;;
12290;SDS011;6208;48.956;9.076;2024-02-21T07:57:05;3.87;;;3.00;;
12290;SDS011;6208;48.956;9.076;2024-02-21T07:59:50;7.60;;;3.28;;
12290;SDS011;6208;48.956;9.076;2024-02-21T08:02:34;7.13;;;2.90;;
12290;SDS011;6208;48.956;9.076;2024-02-21T08:05:19;11.68;;;4.40;;
12290;SDS011;6208;48.956;9.076;2024-02-21T08:08:03;8.23;;;5.57;;
12290;SDS011;6208;48.956;9.076;2024-02-21T08:10:51;7.45;;;4.85;;
12290;SDS011;6208;48.956;9.076;2024-02-21T08:13:35;7.57;;;4.15;;
12290;SDS011;6208;48.956;9.076;2024-02-21T08:16:19;6.07;;;3.58;;
12290;SDS011;6208;48.956;9.076;2024-02-21T08:19:04;6.30;;;4.20;;
12290;SDS011;6208;48.956;9.076;2024-02-21T08:21:48;5.38;;;3.67;;
12290;SDS011;6208;48.956;9.076;2024-02-21T08:24:32;12.15;;;4.13;;
12290;SDS011;6208;48.956;9.076;2024-02-21T08:27:16;6.28;;;4.00;;
12290;SDS011;6208;48.956;9.076;2024-02-21T08:30:00;8.93;;;3.75;;
12290;SDS011;6208;48.956;9.076;2024-02-21T08:32:45;6.60;;;3.05;;
12290;SDS011;6208;48.956;9.076;2024-02-21T08:35:29;5.95;;;3.45;;
12290;SDS011;6208;48.956;9.076;2024-02-21T08:38:13;5.73;;;3.20;;
12290;SDS011;6208;48.956;9.076;2024-02-21T08:40:57;6.32;;;3.67;;
12290;SDS011;6208;48.956;9.076;2024-02-21T08:43:42;6.82;;;3.10;;
12290;SDS011;6208;48.956;9.076;2024-02-21T08:46:26;8.25;;;3.90;;
12290;SDS011;6208;48.956;9.076;2024-02-21T08:49:11;5.53;;;3.15;;
12290;SDS011;6208;48.956;9.076;2024-02-21T08:51:57;6.72;;;3.00;;
12290;SDS011;6208;48.956;9.076;2024-02-21T08:54:41;5.88;;;3.30;;
12290;SDS011;6208;48.956;9.076;2024-02-21T08:57:26;4.10;;;2.60;;
12290;SDS011;6208;48.956;9.076;2024-02-21T09:00:10;8.65;;;3.20;;
12290;SDS011;6208;48.956;9.076;2024-02-21T09:02:56;5.60;;;3.28;;
12290;SDS011;6208;48.956;9.076;2024-02-21T09:05:40;5.50;;;3.10;;
12290;SDS011;6208;48.956;9.076;2024-02-21T09:08:24;4.93;;;3.40;;
12290;SDS011;6208;48.956;9.076;2024-02-21T09:11:09;11.90;;;3.75;;
12290;SDS011;6208;48.956;9.076;2024-02-21T09:13:53;3.85;;;3.20;;
12290;SDS011;6208;48.956;9.076;2024-02-21T09:16:37;6.15;;;3.20;;
12290;SDS011;6208;48.956;9.076;2024-02-21T09:19:21;6.10;;;3.17;;
12290;SDS011;6208;48.956;9.076;2024-02-21T09:22:06;8.98;;;3.40;;
12290;SDS011;6208;48.956;9.076;2024-02-21T09:24:50;7.82;;;3.05;;
12290;SDS011;6208;48.956;9.076;2024-02-21T09:27:34;6.97;;;2.88;;
12290;SDS011;6208;48.956;9.076;2024-02-21T09:30:18;5.72;;;3.15;;
12290;SDS011;6208;48.956;9.076;2024-02-21T09:33:03;5.65;;;3.38;;
12290;SDS011;6208;48.956;9.076;2024-02-21T09:35:48;6.18;;;3.58;;
12290;SDS011;6208;48.956;9.076;2024-02-21T09:38:33;7.47;;;3.42;;
12290;SDS011;6208;48.956;9.076;2024-02-21T09:41:18;5.05;;;2.97;;
12290;SDS011;6208;48.956;9.076;2024-02-21T09:44:09;6.60;;;3.03;;
12290;SDS011;6208;48.956;9.076;2024-02-21T09:47:12;4.90;;;2.97;;
12290;SDS011;6208;48.956;9.076;2024-02-21T09:50:08;3.28;;;2.38;;
12290;SDS011;6208;48.956;9.076;2024-02-21T09:52:53;4.93;;;2.42;;
12290;SDS011;6208;48.956;9.076;2024-02-21T09:55:39;3.97;;;3.03;;
12290;SDS011;6208;48.956;9.076;2024-02-21T09:58:25;7.05;;;2.58;;
12290;SDS011;6208;48.956;9.076;2024-02-21T10:01:11;6.38;;;2.60;;
12290;SDS011;6208;48.956;9.076;2024-02-21T10:03:55;4.82;;;2.70;;
12290;SDS011;6208;48.956;9.076;2024-02-21T10:06:39;4.13;;;2.45;;
12290;SDS011;6208;48.956;9.076;2024-02-21T10:09:27;6.53;;;2.97;;
12290;SDS011;6208;48.956;9.076;2024-02-21T10:12:12;7.70;;;2.25;;
12290;SDS011;6208;48.956;9.076;2024-02-21T10:15:00;3.50;;;2.28;;
12290;SDS011;6208;48.956;9.076;2024-02-21T10:17:45;4.60;;;2.22;;
12290;SDS011;6208;48.956;9.076;2024-02-21T10:20:29;4.38;;;2.13;;
12290;SDS011;6208;48.956;9.076;2024-02-21T10:23:13;4.28;;;2.60;;
12290;SDS011;6208;48.956;9.076;2024-02-21T10:26:04;5.15;;;2.10;;
12290;SDS011;6208;48.956;9.076;2024-02-21T10:28:49;5.07;;;2.35;;
12290;SDS011;6208;48.956;9.076;2024-02-21T10:31:35;4.85;;;2.05;;
12290;SDS011;6208;48.956;9.076;2024-02-21T10:34:19;3.03;;;2.20;;
12290;SDS011;6208;48.956;9.076;2024-02-21T10:37:03;3.50;;;2.30;;
12290;SDS011;6208;48.956;9.076;2024-02-21T10:39:49;5.90;;;2.83;;
12290;SDS011;6208;48.956;9.076;2024-02-21T10:42:35;8.80;;;3.30;;
12290;SDS011;6208;48.956;9.076;2024-02-21T10:45:21;5.30;;;2.20;;
12290;SDS011;6208;48.956;9.076;2024-02-21T10:56:42;3.90;;;2.63;;
12290;SDS011;6208;48.956;9.076;2024-02-21T10:59:27;5.45;;;2.72;;
12290;SDS011;6208;48.956;9.076;2024-02-21T11:02:14;3.20;;;1.95;;
12290;SDS011;6208;48.956;9.076;2024-02-21T11:04:59;3.38;;;2.03;;
12290;SDS011;6208;48.956;9.076;2024-02-21T11:07:45;5.72;;;2.53;;
12290;SDS011;6208;48.956;9.076;2024-02-21T11:10:29;4.47;;;2.22;;
12290;SDS011;6208;48.956;9.076;2024-02-21T11:13:13;4.53;;;2.70;;
12290;SDS011;6208;48.956;9.076;2024-02-21T11:18:52;4.82;;;2.13;;
12290;SDS011;6208;48.956;9.076;2024-02-21T11:22:14;4.63;;;2.40;;
12290;SDS011;6208;48.956;9.076;2024-02-21T11:25:06;3.65;;;2.00;;
12290;SDS011;6208;48.956;9.076;2024-02-21T11:28:04;4.82;;;2.13;;
12290;SDS011;6208;48.956;9.076;2024-02-21T11:30:50;3.00;;;2.22;;
12290;SDS011;6208;48.956;9.076;2024-02-21T11:33:35;4.13;;;2.17;;
12290;SDS011;6208;48.956;9.076;2024-02-21T11:36:23;6.18;;;2.47;;
12290;SDS011;6208;48.956;9.076;2024-02-21T11:39:09;7.47;;;2.70;;
12290;SDS011;6208;48.956;9.076;2024-02-21T11:42:00;5.05;;;2.38;;
12290;SDS011;6208;48.956;9.076;2024-02-21T11:44:48;3.95;;;1.95;;
12290;SDS011;6208;48.956;9.076;2024-02-21T11:47:32;3.08;;;2.20;;
12290;SDS011;6208;48.956;9.076;2024-02-21T11:50:16;3.10;;;1.77;;
12290;SDS011;6208;48.956;9.076;2024-02-21T11:53:01;6.50;;;2.03;;
12290;SDS011;6208;48.956;9.076;2024-02-21T11:55:46;4.70;;;2.10;;
12290;SDS011;6208;48.956;9.076;2024-02-21T11:58:30;2.97;;;2.10;;
12290;SDS011;6208;48.956;9.076;2024-02-21T12:01:15;6.10;;;2.28;;
12290;SDS011;6208;48.956;9.076;2024-02-21T12:03:59;4.55;;;2.20;;
12290;SDS011;6208;48.956;9.076;2024-02-21T12:06:44;5.78;;;2.10;;
12290;SDS011;6208;48.956;9.076;2024-02-21T12:09:29;4.05;;;2.50;;
12290;SDS011;6208;48.956;9.076;2024-02-21T12:12:14;3.08;;;1.98;;
12290;SDS011;6208;48.956;9.076;2024-02-21T12:15:04;2.15;;;1.92;;
12290;SDS011;6208;48.956;9.076;2024-02-21T12:17:49;3.80;;;2.25;;
12290;SDS011;6208;48.956;9.076;2024-02-21T12:20:35;5.95;;;2.40;;
12290;SDS011;6208;48.956;9.076;2024-02-21T12:23:20;5.93;;;2.58;;
12290;SDS011;6208;48.956;9.076;2024-02-21T12:26:04;4.03;;;1.83;;
12290;SDS011;6208;48.956;9.076;2024-02-21T12:28:48;8.55;;;2.10;;
12290;SDS011;6208;48.956;9.076;2024-02-21T12:31:32;5.55;;;2.20;;
12290;SDS011;6208;48.956;9.076;2024-02-21T12:34:16;3.88;;;2.15;;
12290;SDS011;6208;48.956;9.076;2024-02-21T12:37:01;3.72;;;1.92;;
12290;SDS011;6208;48.956;9.076;2024-02-21T12:39:47;4.35;;;2.10;;
12290;SDS011;6208;48.956;9.076;2024-02-21T12:42:31;4.70;;;2.08;;
12290;SDS011;6208;48.956;9.076;2024-02-21T12:45:15;2.80;;;2.03;;
12290;SDS011;6208;48.956;9.076;2024-02-21T12:47:59;7.13;;;2.20;;
12290;SDS011;6208;48.956;9.076;2024-02-21T12:50:48;7.20;;;2.30;;
12290;SDS011;6208;48.956;9.076;2024-02-21T12:53:36;2.80;;;1.83;;
12290;SDS011;6208;48.956;9.076;2024-02-21T12:56:20;6.65;;;2.00;;
12290;SDS011;6208;48.956;9.076;2024-02-21T12:59:04;3.30;;;1.80;;
12290;SDS011;6208;48.956;9.076;2024-02-21T13:01:49;1.92;;;1.80;;
12290;SDS011;6208;48.956;9.076;2024-02-21T13:04:33;3.58;;;1.90;;
12290;SDS011;6208;48.956;9.076;2024-02-21T13:07:17;1.98;;;1.77;;
12290;SDS011;6208;48.956;9.076;2024-02-21T13:10:02;3.13;;;2.17;;
12290;SDS011;6208;48.956;9.076;2024-02-21T13:12:47;4.30;;;1.92;;
12290;SDS011;6208;48.956;9.076;2024-02-21T13:15:31;4.28;;;1.90;;
12290;SDS011;6208;48.956;9.076;2024-02-21T13:18:15;5.43;;;2.22;;
12290;SDS011;6208;48.956;9.076;2024-02-21T13:20:59;4.13;;;1.90;;
12290;SDS011;6208;48.956;9.076;2024-02-21T13:23:43;3.00;;;2.00;;
12290;SDS011;6208;48.956;9.076;2024-02-21T13:26:30;4.65;;;2.30;;
12290;SDS011;6208;48.956;9.076;2024-02-21T13:29:14;6.30;;;2.45;;
12290;SDS011;6208;48.956;9.076;2024-02-21T13:31:58;5.90;;;2.63;;
12290;SDS011;6208;48.956;9.076;2024-02-21T13:34:43;4.85;;;2.47;;
12290;SDS011;6208;48.956;9.076;2024-02-21T13:37:27;2.20;;;1.90;;
12290;SDS011;6208;48.956;9.076;2024-02-21T13:40:12;3.17;;;1.90;;
12290;SDS011;6208;48.956;9.076;2024-02-21T13:42:57;4.18;;;2.20;;
12290;SDS011;6208;48.956;9.076;2024-02-21T13:45:45;4.28;;;2.13;;
12290;SDS011;6208;48.956;9.076;2024-02-21T13:48:41;5.22;;;2.35;;
12290;SDS011;6208;48.956;9.076;2024-02-21T13:51:25;5.40;;;2.30;;
12290;SDS011;6208;48.956;9.076;2024-02-21T13:54:09;4.28;;;2.38;;
12290;SDS011;6208;48.956;9.076;2024-02-21T13:56:54;4.22;;;1.92;;
12290;SDS011;6208;48.956;9.076;2024-02-21T13:59:39;4.50;;;1.90;;
12290;SDS011;6208;48.956;9.076;2024-02-21T14:02:23;4.35;;;2.28;;
12290;SDS011;6208;48.956;9.076;2024-02-21T14:05:07;2.97;;;1.77;;
12290;SDS011;6208;48.956;9.076;2024-02-21T14:07:52;4.20;;;2.42;;
12290;SDS011;6208;48.956;9.076;2024-02-21T14:10:38;6.28;;;2.47;;
12290;SDS011;6208;48.956;9.076;2024-02-21T14:13:22;5.20;;;2.70;;
12290;SDS011;6208;48.956;9.076;2024-02-21T14:16:10;7.15;;;2.58;;
12290;SDS011;6208;48.956;9.076;2024-02-21T14:18:57;4.53;;;2.20;;
12290;SDS011;6208;48.956;9.076;2024-02-21T14:21:41;2.90;;;2.38;;
12290;SDS011;6208;48.956;9.076;2024-02-21T14:24:25;5.68;;;2.30;;
12290;SDS011;6208;48.956;9.076;2024-02-21T14:27:11;5.93;;;2.10;;
12290;SDS011;6208;48.956;9.076;2024-02-21T14:29:56;3.67;;;2.03;;
12290;SDS011;6208;48.956;9.076;2024-02-21T14:32:41;3.58;;;1.88;;
12290;SDS011;6208;48.956;9.076;2024-02-21T14:35:28;3.60;;;1.75;;
12290;SDS011;6208;48.956;9.076;2024-02-21T14:38:12;6.07;;;2.17;;
12290;SDS011;6208;48.956;9.076;2024-02-21T14:40:56;3.63;;;1.83;;
12290;SDS011;6208;48.956;9.076;2024-02-21T14:43:40;1.90;;;1.50;;
12290;SDS011;6208;48.956;9.076;2024-02-21T14:46:25;6.15;;;2.00;;
12290;SDS011;6208;48.956;9.076;2024-02-21T14:49:11;3.75;;;1.98;;
12290;SDS011;6208;48.956;9.076;2024-02-21T14:51:55;16.00;;;7.60;;
12290;SDS011;6208;48.956;9.076;2024-02-21T14:54:39;5.03;;;2.47;;
12290;SDS011;6208;48.956;9.076;2024-02-21T14:57:28;3.63;;;2.20;;
12290;SDS011;6208;48.956;9.076;2024-02-21T15:00:12;5.40;;;2.13;;
12290;SDS011;6208;48.956;9.076;2024-02-21T15:02:57;6.35;;;2.10;;
12290;SDS011;6208;48.956;9.076;2024-02-21T15:05:42;3.22;;;1.80;;
12290;SDS011;6208;48.956;9.076;2024-02-21T15:08:26;4.65;;;2.05;;
12290;SDS011;6208;48.956;9.076;2024-02-21T15:11:11;4.03;;;2.45;;
12290;SDS011;6208;48.956;9.076;2024-02-21T15:13:55;5.97;;;2.90;;
12290;SDS011;6208;48.956;9.076;2024-02-21T15:16:39;4.05;;;1.98;;
12290;SDS011;6208;48.956;9.076;2024-02-21T15:19:23;5.50;;;2.58;;
12290;SDS011;6208;48.956;9.076;2024-02-21T15:22:08;2.95;;;2.00;;
12290;SDS011;6208;48.956;9.076;2024-02-21T15:24:52;2.97;;;2.00;;
12290;SDS011;6208;48.956;9.076;2024-02-21T15:27:36;8.52;;;2.33;;
12290;SDS011;6208;48.956;9.076;2024-02-21T15:30:20;6.93;;;2.33;;
12290;SDS011;6208;48.956;9.076;2024-02-21T15:33:04;3.25;;;1.77;;
12290;SDS011;6208;48.956;9.076;2024-02-21T15:35:49;4.70;;;2.95;;
12290;SDS011;6208;48.956;9.076;2024-02-21T15:38:34;5.38;;;2.42;;
12290;SDS011;6208;48.956;9.076;2024-02-21T15:41:18;5.30;;;2.17;;
12290;SDS011;6208;48.956;9.076;2024-02-21T15:44:04;8.57;;;2.50;;
12290;SDS011;6208;48.956;9.076;2024-02-21T15:46:49;4.53;;;2.35;;
12290;SDS011;6208;48.956;9.076;2024-02-21T15:49:35;5.57;;;2.03;;
12290;SDS011;6208;48.956;9.076;2024-02-21T15:52:20;6.30;;;2.47;;
12290;SDS011;6208;48.956;9.076;2024-02-21T15:55:05;3.85;;;2.40;;
12290;SDS011;6208;48.956;9.076;2024-02-21T15:57:54;4.18;;;2.30;;
12290;SDS011;6208;48.956;9.076;2024-02-21T16:00:38;5.35;;;2.40;;
12290;SDS011;6208;48.956;9.076;2024-02-21T16:03:22;4.70;;;2.50;;
12290;SDS011;6208;48.956;9.076;2024-02-21T16:06:06;6.57;;;2.67;;
12290;SDS011;6208;48.956;9.076;2024-02-21T16:08:51;7.03;;;2.35;;
12290;SDS011;6208;48.956;9.076;2024-02-21T16:11:35;5.63;;;2.55;;
12290;SDS011;6208;48.956;9.076;2024-02-21T16:14:21;4.32;;;2.63;;
12290;SDS011;6208;48.956;9.076;2024-02-21T16:17:05;5.22;;;2.85;;
12290;SDS011;6208;48.956;9.076;2024-02-21T16:19:49;3.72;;;2.10;;
12290;SDS011;6208;48.956;9.076;2024-02-21T16:22:33;7.65;;;2.92;;
12290;SDS011;6208;48.956;9.076;2024-02-21T16:25:17;5.20;;;2.55;;
12290;SDS011;6208;48.956;9.076;2024-02-21T16:28:01;7.03;;;3.17;;
12290;SDS011;6208;48.956;9.076;2024-02-21T16:30:47;4.88;;;3.40;;
12290;SDS011;6208;48.956;9.076;2024-02-21T16:33:31;7.43;;;2.47;;
12290;SDS011;6208;48.956;9.076;2024-02-21T16:36:20;7.55;;;3.05;;
12290;SDS011;6208;48.956;9.076;2024-02-21T16:39:05;6.03;;;2.42;;
12290;SDS011;6208;48.956;9.076;2024-02-21T16:41:50;6.65;;;2.85;;
12290;SDS011;6208;48.956;9.076;2024-02-21T16:44:37;7.95;;;2.80;;
12290;SDS011;6208;48.956;9.076;2024-02-21T16:47:21;4.45;;;2.40;;
12290;SDS011;6208;48.956;9.076;2024-02-21T16:50:05;4.22;;;2.50;;
12290;SDS011;6208;48.956;9.076;2024-02-21T16:52:50;4.40;;;2.80;;
12290;SDS011;6208;48.956;9.076;2024-02-21T16:55:34;7.50;;;3.00;;
12290;SDS011;6208;48.956;9.076;2024-02-21T16:58:18;4.47;;;2.47;;
12290;SDS011;6208;48.956;9.076;2024-02-21T17:01:05;7.80;;;3.17;;